Time;durP1;ratioP1;P1;durP2;ratioP2;P2;SDS_P1;SDS_P2;PMS_P1;PMS_P2;Temp;Humidity;BMP_temperature;BMP_pressure;BME280_temperature;BME280_humidity;BME280_pressure;Samples;Min_cycle;Max_cycle;Signal;HPM_P1;HPM_P2
2023/01/01 00:00:10;;;;;;;147.47;79.07;;;;;;;-142.25;100.00;58004.16;5035678;28;20043;-65
2023/01/01 00:02:37;;;;;;;138.17;73.93;;;;;;;-142.25;100.00;58004.16;5035482;28;20763;-64
2023/01/01 00:05:04;;;;;;;119.67;66.77;;;;;;;-142.25;100.00;58004.16;5041790;28;20048;-65
2023/01/01 00:07:30;;;;;;;125.97;69.43;;;;;;;-142.25;100.00;58004.16;5033959;28;20504;-65
2023/01/01 00:12:39;;;;;;;134.23;72.07;;;;;;;-142.25;100.00;58004.16;5035390;28;20102;-64
2023/01/01 00:15:06;;;;;;;151.43;81.57;;;;;;;-142.25;100.00;58004.16;5034151;28;20058;-64
2023/01/01 00:17:31;;;;;;;151.63;81.93;;;;;;;-142.25;100.00;58004.16;5035296;28;20500;-62
2023/01/01 00:19:57;;;;;;;157.17;85.30;;;;;;;-142.25;100.00;58004.16;5034681;28;20128;-64
2023/01/01 00:22:23;;;;;;;146.00;74.43;;;;;;;-142.25;100.00;58004.16;5035728;28;20043;-65
2023/01/01 00:24:49;;;;;;;124.63;71.93;;;;;;;-142.25;100.00;58004.16;5034393;28;20044;-64
2023/01/01 00:27:15;;;;;;;129.43;64.40;;;;;;;-142.25;100.00;58004.16;5035460;28;20052;-65
2023/01/01 00:29:40;;;;;;;114.47;62.33;;;;;;;-142.25;100.00;58004.16;5034653;28;20393;-65
2023/01/01 00:32:06;;;;;;;109.73;64.30;;;;;;;-142.25;100.00;58004.16;5034481;28;20042;-65
2023/01/01 00:34:31;;;;;;;114.97;64.50;;;;;;;-142.25;100.00;58004.16;5028042;28;20110;-65
2023/01/01 00:36:57;;;;;;;113.50;61.83;;;;;;;-142.25;100.00;58004.16;5030503;28;20139;-65
2023/01/01 00:39:23;;;;;;;126.63;70.87;;;;;;;-142.25;100.00;58004.16;5034286;28;20053;-65
2023/01/01 00:41:49;;;;;;;146.43;80.83;;;;;;;-142.25;100.00;58004.16;5034008;28;20099;-66
2023/01/01 00:44:14;;;;;;;141.67;74.63;;;;;;;-142.25;100.00;58004.16;5033569;28;20056;-65
2023/01/01 00:46:40;;;;;;;161.97;85.50;;;;;;;-142.25;100.00;58004.16;5032216;28;20035;-64
2023/01/01 00:49:05;;;;;;;164.37;87.93;;;;;;;-142.25;100.00;58004.16;5034346;28;20097;-64
2023/01/01 00:51:31;;;;;;;169.73;92.00;;;;;;;-142.25;100.00;58004.16;5035449;28;20045;-64
2023/01/01 00:53:57;;;;;;;167.63;89.70;;;;;;;-142.25;100.00;58004.16;5029948;28;20571;-64
2023/01/01 00:56:22;;;;;;;185.23;94.70;;;;;;;-142.25;100.00;58004.16;5032667;28;20119;-64
2023/01/01 00:58:48;;;;;;;158.80;84.53;;;;;;;-142.25;100.00;58004.16;5033645;28;20175;-64
2023/01/01 01:01:13;;;;;;;145.00;78.70;;;;;;;-142.25;100.00;58004.16;5040275;28;20036;-63
2023/01/01 01:03:39;;;;;;;141.87;74.83;;;;;;;-142.25;100.00;58004.16;5039752;28;20049;-63
2023/01/01 01:06:05;;;;;;;129.93;66.27;;;;;;;-142.25;100.00;58004.16;5033485;28;20048;-64
2023/01/01 01:08:33;;;;;;;129.87;64.60;;;;;;;-142.25;100.00;58004.16;5033157;28;20119;-63
2023/01/01 01:11:24;;;;;;;129.73;67.10;;;;;;;-142.25;100.00;58004.16;5034532;28;20090;-65
2023/01/01 01:13:52;;;;;;;116.77;60.10;;;;;;;-142.25;100.00;58004.16;5030913;28;20060;-65
2023/01/01 01:16:25;;;;;;;121.73;65.93;;;;;;;-142.25;100.00;58004.16;5027573;28;20042;-63
2023/01/01 01:18:52;;;;;;;131.67;71.03;;;;;;;-142.25;100.00;58004.16;5027000;28;20045;-63
2023/01/01 01:21:19;;;;;;;128.03;70.23;;;;;;;-142.25;100.00;58004.16;5040511;28;20120;-65
2023/01/01 01:23:47;;;;;;;123.73;67.07;;;;;;;-142.25;100.00;58004.16;5041015;28;20044;-64
2023/01/01 01:26:19;;;;;;;115.73;65.87;;;;;;;-142.25;100.00;58004.16;5039199;28;20334;-63
2023/01/01 01:28:45;;;;;;;135.33;69.57;;;;;;;-142.25;100.00;58004.16;5040694;28;20372;-64
2023/01/01 01:31:11;;;;;;;127.80;69.23;;;;;;;-142.25;100.00;58004.16;5039420;28;20564;-63
2023/01/01 01:33:39;;;;;;;143.93;75.23;;;;;;;-142.25;100.00;58004.16;5038513;28;20045;-64
2023/01/01 01:36:09;;;;;;;143.23;72.73;;;;;;;-142.25;100.00;58004.16;5040258;28;20048;-63
2023/01/01 01:38:35;;;;;;;134.87;70.20;;;;;;;-142.25;100.00;58004.16;5039451;28;20041;-65
2023/01/01 01:41:01;;;;;;;125.93;70.80;;;;;;;-142.25;100.00;58004.16;5047509;28;20046;-64
2023/01/01 01:43:32;;;;;;;122.40;63.17;;;;;;;-142.25;100.00;58004.16;5039425;28;20843;-65
2023/01/01 01:46:20;;;;;;;110.73;59.57;;;;;;;-142.25;100.00;58004.16;5039474;28;20043;-64
2023/01/01 01:48:49;;;;;;;115.30;59.20;;;;;;;-142.25;100.00;58004.16;5041077;28;20053;-65
2023/01/01 01:51:25;;;;;;;109.73;54.63;;;;;;;-142.25;100.00;58004.16;5041456;28;20171;-64
2023/01/01 01:53:55;;;;;;;92.30;53.37;;;;;;;-142.25;100.00;58004.16;5040269;28;20769;-65
2023/01/01 01:56:29;;;;;;;131.03;67.30;;;;;;;-142.25;100.00;58004.16;5039594;28;20073;-64
2023/01/01 01:58:55;;;;;;;99.40;50.83;;;;;;;-142.25;100.00;58004.16;5037958;28;20080;-68
2023/01/01 02:01:23;;;;;;;99.97;50.63;;;;;;;-142.25;100.00;58004.16;5041796;28;20029;-68
2023/01/01 02:03:56;;;;;;;93.67;49.17;;;;;;;-142.25;100.00;58004.16;5036318;28;20059;-67
2023/01/01 02:06:24;;;;;;;89.97;48.33;;;;;;;-142.25;100.00;58004.16;5044423;28;20046;-68
2023/01/01 02:08:50;;;;;;;78.23;43.60;;;;;;;-142.25;100.00;58004.16;5037530;28;20132;-68
2023/01/01 02:11:16;;;;;;;81.07;44.30;;;;;;;-142.25;100.00;58004.16;5039502;28;20148;-66
2023/01/01 02:13:42;;;;;;;87.63;44.90;;;;;;;-142.25;100.00;58004.16;5039636;28;20057;-67
2023/01/01 02:16:47;;;;;;;82.67;46.57;;;;;;;-142.25;100.00;58004.16;5047656;28;20041;-68
2023/01/01 02:19:42;;;;;;;80.90;41.67;;;;;;;-142.25;100.00;58004.16;5038570;28;20128;-68
2023/01/01 02:22:55;;;;;;;80.90;41.77;;;;;;;-142.25;100.00;58004.16;4961958;28;20050;-67
2023/01/01 02:25:21;;;;;;;82.13;42.20;;;;;;;-142.25;100.00;58004.16;4889420;29;20048;-68
2023/01/01 02:27:58;;;;;;;75.50;41.50;;;;;;;-142.25;100.00;58004.16;4890141;29;20052;-66
2023/01/01 02:30:27;;;;;;;85.63;44.80;;;;;;;-142.25;100.00;58004.16;4888930;29;20037;-67
2023/01/01 02:32:59;;;;;;;81.93;44.53;;;;;;;-142.25;100.00;58004.16;4887671;29;20087;-68
2023/01/01 02:35:35;;;;;;;84.57;43.07;;;;;;;-142.25;100.00;58004.16;4886158;29;20052;-66
2023/01/01 02:38:13;;;;;;;81.47;41.53;;;;;;;-142.25;100.00;58004.16;4887068;29;20044;-67
2023/01/01 02:40:45;;;;;;;77.87;41.17;;;;;;;-142.25;100.00;58004.16;4888493;29;20052;-67
2023/01/01 02:43:11;;;;;;;77.63;40.93;;;;;;;-142.25;100.00;58004.16;4886804;29;20063;-68
2023/01/01 02:45:36;;;;;;;84.23;40.40;;;;;;;-142.25;100.00;58004.16;4883740;29;20065;-67
2023/01/01 02:48:26;;;;;;;71.20;37.63;;;;;;;-142.25;100.00;58004.16;4885923;29;20360;-67
2023/01/01 02:50:53;;;;;;;71.47;38.00;;;;;;;-142.25;100.00;58004.16;4888463;29;20548;-68
2023/01/01 02:53:32;;;;;;;78.23;38.53;;;;;;;-142.25;100.00;58004.16;4886725;29;20060;-67
2023/01/01 02:56:24;;;;;;;68.00;38.57;;;;;;;-142.25;100.00;58004.16;4887924;29;20087;-68
2023/01/01 03:01:58;;;;;;;70.90;38.00;;;;;;;-142.25;100.00;58004.16;5006530;28;20056;-67
2023/01/01 03:04:45;;;;;;;72.43;37.43;;;;;;;-142.25;100.00;58004.16;5032191;28;20569;-67
2023/01/01 03:07:39;;;;;;;69.13;34.67;;;;;;;-142.25;100.00;58004.16;5034738;28;20538;-68
2023/01/01 03:10:18;;;;;;;64.70;34.03;;;;;;;-142.25;100.00;58004.16;5035906;28;20510;-66
2023/01/01 03:12:58;;;;;;;61.23;31.73;;;;;;;-142.25;100.00;58004.16;5047793;28;20048;-68
2023/01/01 03:15:37;;;;;;;66.63;35.33;;;;;;;-142.25;100.00;58004.16;5034243;28;20055;-68
2023/01/01 03:18:28;;;;;;;64.67;33.97;;;;;;;-142.25;100.00;58004.16;5040774;28;20067;-67
2023/01/01 03:20:57;;;;;;;67.40;35.77;;;;;;;-142.25;100.00;58004.16;5032523;28;20076;-68
2023/01/01 03:23:34;;;;;;;60.47;31.30;;;;;;;-142.25;100.00;58004.16;5036671;28;20045;-68
2023/01/01 03:26:06;;;;;;;66.10;35.37;;;;;;;-142.25;100.00;58004.16;5035434;28;20380;-67
2023/01/01 03:28:43;;;;;;;63.97;33.33;;;;;;;-142.25;100.00;58004.16;5037771;28;20037;-67
2023/01/01 03:31:09;;;;;;;70.57;36.60;;;;;;;-142.25;100.00;58004.16;5036290;28;20068;-67
2023/01/01 03:33:46;;;;;;;65.03;35.27;;;;;;;-142.25;100.00;58004.16;5036720;28;20040;-66
2023/01/01 03:36:18;;;;;;;58.97;33.97;;;;;;;-142.25;100.00;58004.16;5038101;28;20554;-67
2023/01/01 03:38:51;;;;;;;65.13;32.40;;;;;;;-142.25;100.00;58004.16;5035095;28;20484;-69
2023/01/01 03:41:26;;;;;;;66.00;33.40;;;;;;;-142.25;100.00;58004.16;5038972;28;20049;-66
2023/01/01 03:43:55;;;;;;;62.30;34.10;;;;;;;-142.25;100.00;58004.16;5035743;28;20041;-69
2023/01/01 03:46:28;;;;;;;57.73;31.03;;;;;;;-142.25;100.00;58004.16;5037512;28;20591;-67
2023/01/01 03:48:57;;;;;;;57.83;29.90;;;;;;;-142.25;100.00;58004.16;5036417;28;20081;-68
2023/01/01 03:51:48;;;;;;;50.13;29.30;;;;;;;-142.25;100.00;58004.16;5037221;28;20095;-67
2023/01/01 03:54:33;;;;;;;58.73;30.63;;;;;;;-142.25;100.00;58004.16;4963981;28;20051;-69
2023/01/01 03:57:28;;;;;;;56.60;30.20;;;;;;;-142.25;100.00;58004.16;4964128;28;20566;-66
2023/01/01 04:00:04;;;;;;;56.87;29.57;;;;;;;-142.25;100.00;58004.16;4956960;28;20655;-68
2023/01/01 04:02:47;;;;;;;61.77;30.87;;;;;;;-142.25;100.00;58004.16;4960242;28;20089;-67
2023/01/01 04:05:14;;;;;;;58.17;29.00;;;;;;;-142.25;100.00;58004.16;4963996;28;20726;-67
2023/01/01 04:07:40;;;;;;;65.20;31.70;;;;;;;-142.25;100.00;58004.16;4966376;28;20157;-67
2023/01/01 04:10:16;;;;;;;62.23;30.03;;;;;;;-142.25;100.00;58004.16;4961898;28;20047;-66
2023/01/01 04:12:54;;;;;;;55.95;30.05;;;;;;;-142.25;100.00;58004.16;4960618;28;20051;-66
2023/01/01 04:15:23;;;;;;;64.40;32.13;;;;;;;-142.25;100.00;58004.16;4963913;28;20054;-66
2023/01/01 04:17:50;;;;;;;58.93;31.07;;;;;;;-142.25;100.00;58004.16;4945489;28;20162;-67
2023/01/01 04:20:16;;;;;;;52.03;27.70;;;;;;;-142.25;100.00;58004.16;4962405;28;20477;-67
2023/01/01 04:22:42;;;;;;;59.40;29.20;;;;;;;-142.25;100.00;58004.16;4947050;28;20039;-67
2023/01/01 04:25:08;;;;;;;57.33;31.40;;;;;;;-142.25;100.00;58004.16;4963298;28;20058;-67
2023/01/01 04:27:38;;;;;;;52.50;30.83;;;;;;;-142.25;100.00;58004.16;4963931;28;20487;-67
2023/01/01 04:30:06;;;;;;;57.70;30.97;;;;;;;-142.25;100.00;58004.16;4963203;28;20101;-66
2023/01/01 04:32:31;;;;;;;77.93;41.17;;;;;;;-142.25;100.00;58004.16;5035969;28;20032;-67
2023/01/01 04:34:57;;;;;;;66.97;36.73;;;;;;;-142.25;100.00;58004.16;5034762;28;20060;-68
2023/01/01 04:37:23;;;;;;;68.10;33.70;;;;;;;-142.25;100.00;58004.16;5036646;28;20602;-67
2023/01/01 04:39:49;;;;;;;65.10;33.07;;;;;;;-142.25;100.00;58004.16;5035052;28;20037;-67
2023/01/01 04:42:14;;;;;;;56.83;33.27;;;;;;;-142.25;100.00;58004.16;5024682;28;20118;-68
2023/01/01 04:44:40;;;;;;;60.13;30.07;;;;;;;-142.25;100.00;58004.16;5035452;28;20415;-68
2023/01/01 04:47:06;;;;;;;60.67;31.47;;;;;;;-142.25;100.00;58004.16;5035515;28;20041;-68
2023/01/01 04:49:32;;;;;;;61.30;30.50;;;;;;;-142.25;100.00;58004.16;5034008;28;20114;-67
2023/01/01 04:51:57;;;;;;;56.57;29.87;;;;;;;-142.25;100.00;58004.16;5034800;28;20036;-67
2023/01/01 04:54:23;;;;;;;65.53;32.87;;;;;;;-142.25;100.00;58004.16;5034250;28;20079;-66
2023/01/01 04:56:48;;;;;;;61.57;34.53;;;;;;;-142.25;100.00;58004.16;5036985;28;20052;-67
2023/01/01 04:59:14;;;;;;;56.73;31.13;;;;;;;-142.25;100.00;58004.16;5032005;28;20037;-68
2023/01/01 05:01:40;;;;;;;57.90;31.80;;;;;;;-142.25;100.00;58004.16;5040340;28;20368;-66
2023/01/01 05:04:05;;;;;;;52.23;28.33;;;;;;;-142.25;100.00;58004.16;5035235;28;20045;-67
2023/01/01 05:06:31;;;;;;;55.23;31.43;;;;;;;-142.25;100.00;58004.16;5034636;28;20223;-67
2023/01/01 05:08:58;;;;;;;63.50;31.77;;;;;;;-142.25;100.00;58004.16;5033647;28;20103;-67
2023/01/01 05:11:26;;;;;;;53.93;28.63;;;;;;;-142.25;100.00;58004.16;5035456;28;20041;-67
2023/01/01 05:13:54;;;;;;;59.80;30.77;;;;;;;-142.25;100.00;58004.16;5035327;28;20145;-68
2023/01/01 05:16:22;;;;;;;53.90;30.00;;;;;;;-142.25;100.00;58004.16;5033709;28;20381;-67
2023/01/01 05:18:49;;;;;;;56.80;30.17;;;;;;;-142.25;100.00;58004.16;5034712;28;20040;-67
2023/01/01 05:21:17;;;;;;;56.93;29.17;;;;;;;-142.25;100.00;58004.16;5036512;28;20028;-67
2023/01/01 05:23:43;;;;;;;56.80;29.83;;;;;;;-142.25;100.00;58004.16;5035258;28;20037;-66
2023/01/01 05:26:19;;;;;;;51.17;28.03;;;;;;;-142.25;100.00;58004.16;5037493;28;20567;-67
2023/01/01 05:28:46;;;;;;;48.00;26.60;;;;;;;-142.25;100.00;58004.16;5051850;28;20073;-67
2023/01/01 05:31:14;;;;;;;51.97;27.07;;;;;;;-142.25;100.00;58004.16;5033889;28;20053;-66
2023/01/01 05:33:40;;;;;;;48.70;27.37;;;;;;;-142.25;100.00;58004.16;5036776;28;20041;-68
2023/01/01 05:36:08;;;;;;;50.13;28.07;;;;;;;-142.25;100.00;58004.16;5036629;28;20044;-66
2023/01/01 05:38:34;;;;;;;51.00;27.77;;;;;;;-142.25;100.00;58004.16;5033766;28;20032;-68
2023/01/01 05:41:07;;;;;;;50.37;28.30;;;;;;;-142.25;100.00;58004.16;5035769;28;20480;-67
2023/01/01 05:43:35;;;;;;;47.80;27.27;;;;;;;-142.25;100.00;58004.16;5034770;28;20038;-67
2023/01/01 05:46:06;;;;;;;52.10;29.27;;;;;;;-142.25;100.00;58004.16;5036088;28;20045;-66
2023/01/01 05:48:35;;;;;;;49.40;28.50;;;;;;;-142.25;100.00;58004.16;5036111;28;20116;-68
2023/01/01 05:51:05;;;;;;;51.30;30.00;;;;;;;-142.25;100.00;58004.16;5029455;28;20052;-67
2023/01/01 05:53:31;;;;;;;51.93;29.57;;;;;;;-142.25;100.00;58004.16;5030017;28;20037;-67
2023/01/01 05:55:57;;;;;;;53.83;29.00;;;;;;;-142.25;100.00;58004.16;5035623;28;20598;-69
2023/01/01 05:58:23;;;;;;;55.90;30.07;;;;;;;-142.25;100.00;58004.16;5034614;28;20039;-68
2023/01/01 06:00:48;;;;;;;53.63;28.23;;;;;;;-142.25;100.00;58004.16;5032619;28;20096;-67
2023/01/01 06:03:14;;;;;;;51.87;27.77;;;;;;;-142.25;100.00;58004.16;5037233;28;20133;-66
2023/01/01 06:05:40;;;;;;;51.17;26.70;;;;;;;-142.25;100.00;58004.16;5040099;28;20213;-66
2023/01/01 06:08:06;;;;;;;51.83;27.93;;;;;;;-142.25;100.00;58004.16;5037509;28;20126;-66
2023/01/01 06:10:31;;;;;;;44.50;27.83;;;;;;;-142.25;100.00;58004.16;5041141;28;20057;-66
2023/01/01 06:12:57;;;;;;;44.80;25.30;;;;;;;-142.25;100.00;58004.16;5039852;28;20041;-66
2023/01/01 06:15:26;;;;;;;46.87;26.67;;;;;;;-142.25;100.00;58004.16;5039598;28;20529;-67
2023/01/01 06:17:52;;;;;;;48.57;27.93;;;;;;;-142.25;100.00;58004.16;5040373;28;20041;-67
2023/01/01 06:20:18;;;;;;;44.60;24.83;;;;;;;-142.25;100.00;58004.16;5039431;28;20652;-66
2023/01/01 06:22:44;;;;;;;48.70;25.43;;;;;;;-142.25;100.00;58004.16;5038008;28;20036;-67
2023/01/01 06:25:10;;;;;;;42.73;23.77;;;;;;;-142.25;100.00;58004.16;5036956;28;20037;-67
2023/01/01 06:27:36;;;;;;;45.17;25.17;;;;;;;-142.25;100.00;58004.16;5037126;28;20087;-67
2023/01/01 06:30:03;;;;;;;43.93;24.53;;;;;;;-142.25;100.00;58004.16;5037738;28;20599;-67
2023/01/01 06:32:29;;;;;;;46.80;25.53;;;;;;;-142.25;100.00;58004.16;5036559;28;20143;-68
2023/01/01 06:34:54;;;;;;;46.27;25.37;;;;;;;-142.25;100.00;58004.16;5036651;28;20128;-67
2023/01/01 06:37:20;;;;;;;45.43;26.07;;;;;;;-142.25;100.00;58004.16;5036056;28;20483;-67
2023/01/01 06:39:46;;;;;;;45.93;25.53;;;;;;;-142.25;100.00;58004.16;5034332;28;20044;-67
2023/01/01 06:42:11;;;;;;;47.57;25.97;;;;;;;-142.25;100.00;58004.16;5031081;28;20045;-66
2023/01/01 06:44:38;;;;;;;47.50;24.60;;;;;;;-142.25;100.00;58004.16;5035619;28;20049;-67
2023/01/01 06:47:04;;;;;;;49.03;24.70;;;;;;;-142.25;100.00;58004.16;5034400;28;20546;-66
2023/01/01 06:49:30;;;;;;;51.57;26.80;;;;;;;-142.25;100.00;58004.16;5036769;28;20886;-68
2023/01/01 06:51:55;;;;;;;56.00;26.73;;;;;;;-142.25;100.00;58004.16;5036358;28;20669;-69
2023/01/01 06:54:21;;;;;;;52.87;25.93;;;;;;;-142.25;100.00;58004.16;5038035;28;20056;-69
2023/01/01 06:56:48;;;;;;;54.73;27.23;;;;;;;-142.25;100.00;58004.16;5036895;28;20041;-67
2023/01/01 06:59:17;;;;;;;56.50;28.40;;;;;;;-142.25;100.00;58004.16;5035389;28;20052;-68
2023/01/01 07:01:43;;;;;;;53.73;25.37;;;;;;;-142.25;100.00;58004.16;5036761;28;20179;-67
2023/01/01 07:04:14;;;;;;;56.90;26.87;;;;;;;-142.25;100.00;58004.16;5025749;28;20054;-68
2023/01/01 07:06:41;;;;;;;45.40;24.77;;;;;;;-142.25;100.00;58004.16;5037539;28;20040;-67
2023/01/01 07:09:07;;;;;;;44.20;25.73;;;;;;;-142.25;100.00;58004.16;5033430;28;20038;-66
2023/01/01 07:11:34;;;;;;;52.57;26.87;;;;;;;-142.25;100.00;58004.16;5040652;28;20114;-67
2023/01/01 07:14:01;;;;;;;48.70;26.33;;;;;;;-142.25;100.00;58004.16;5035428;28;20057;-66
2023/01/01 07:16:29;;;;;;;47.07;25.73;;;;;;;-142.25;100.00;58004.16;5035705;28;20599;-67
2023/01/01 07:18:56;;;;;;;47.23;26.23;;;;;;;-142.25;100.00;58004.16;5034858;28;20055;-68
2023/01/01 07:21:32;;;;;;;46.27;24.60;;;;;;;-142.25;100.00;58004.16;5033634;28;20106;-67
2023/01/01 07:24:00;;;;;;;46.17;25.27;;;;;;;-142.25;100.00;58004.16;5032453;28;20663;-64
2023/01/01 07:26:27;;;;;;;44.37;23.33;;;;;;;-142.25;100.00;58004.16;5034240;28;20569;-68
2023/01/01 07:28:52;;;;;;;50.23;24.97;;;;;;;-142.25;100.00;58004.16;5037350;28;20032;-68
2023/01/01 07:31:18;;;;;;;43.70;22.97;;;;;;;-142.25;100.00;58004.16;5035558;28;20052;-66
2023/01/01 07:33:44;;;;;;;49.87;25.47;;;;;;;-142.25;100.00;58004.16;5035026;28;20454;-68
2023/01/01 07:36:09;;;;;;;46.60;25.10;;;;;;;-142.25;100.00;58004.16;5034934;28;20021;-69
2023/01/01 07:38:35;;;;;;;49.40;27.27;;;;;;;-142.25;100.00;58004.16;5036026;28;20037;-68
2023/01/01 07:41:01;;;;;;;46.27;25.27;;;;;;;-142.25;100.00;58004.16;5036192;28;20159;-66
2023/01/01 07:43:26;;;;;;;49.37;24.80;;;;;;;-142.25;100.00;58004.16;5036856;28;20047;-67
2023/01/01 07:45:52;;;;;;;44.63;23.37;;;;;;;-142.25;100.00;58004.16;5035421;28;20079;-69
2023/01/01 07:48:17;;;;;;;41.27;23.87;;;;;;;-142.25;100.00;58004.16;5041163;28;20053;-66
2023/01/01 07:50:43;;;;;;;41.33;24.57;;;;;;;-142.25;100.00;58004.16;5035876;28;20117;-67
2023/01/01 07:53:10;;;;;;;48.27;26.47;;;;;;;-142.25;100.00;58004.16;5034888;28;20033;-67
2023/01/01 07:55:36;;;;;;;51.93;26.77;;;;;;;-142.25;100.00;58004.16;5035552;28;20048;-66
2023/01/01 07:58:02;;;;;;;57.73;31.03;;;;;;;-142.25;100.00;58004.16;5033308;28;20156;-67
2023/01/01 08:00:28;;;;;;;63.93;28.07;;;;;;;-142.25;100.00;58004.16;5036016;28;20147;-67
2023/01/01 08:02:57;;;;;;;46.37;25.07;;;;;;;-142.25;100.00;58004.16;5036145;28;20541;-66
2023/01/01 08:05:23;;;;;;;48.73;24.57;;;;;;;-142.25;100.00;58004.16;5033121;28;20082;-69
2023/01/01 08:07:50;;;;;;;45.87;26.00;;;;;;;-142.25;100.00;58004.16;5034198;28;20379;-67
2023/01/01 08:10:18;;;;;;;56.37;27.17;;;;;;;-142.25;100.00;58004.16;5030638;28;20048;-64
2023/01/01 08:12:44;;;;;;;50.77;25.73;;;;;;;-142.25;100.00;58004.16;5031321;28;20042;-66
2023/01/01 08:15:10;;;;;;;43.97;24.47;;;;;;;-142.25;100.00;58004.16;5027741;28;20115;-66
2023/01/01 08:17:36;;;;;;;41.57;23.97;;;;;;;-142.25;100.00;58004.16;5034189;28;20033;-67
2023/01/01 08:20:02;;;;;;;47.83;27.13;;;;;;;-142.25;100.00;58004.16;5033520;28;20491;-66
2023/01/01 08:22:30;;;;;;;49.37;27.97;;;;;;;-142.25;100.00;58004.16;5032916;28;20467;-66
2023/01/01 08:24:58;;;;;;;47.77;27.27;;;;;;;-142.25;100.00;58004.16;5031308;28;20045;-66
2023/01/01 08:27:24;;;;;;;45.33;26.37;;;;;;;-142.25;100.00;58004.16;5031798;28;20149;-70
2023/01/01 08:29:50;;;;;;;42.63;23.23;;;;;;;-142.25;100.00;58004.16;5028861;28;20041;-70
2023/01/01 08:32:15;;;;;;;37.97;21.73;;;;;;;-142.25;100.00;58004.16;5029052;28;20670;-72
2023/01/01 08:34:41;;;;;;;38.47;20.83;;;;;;;-142.25;100.00;58004.16;5031265;28;20495;-71
2023/01/01 08:37:12;;;;;;;36.60;20.63;;;;;;;-142.25;100.00;58004.16;5032012;28;20048;-69
2023/01/01 08:39:38;;;;;;;38.83;20.00;;;;;;;-142.25;100.00;58004.16;5031779;28;20041;-71
2023/01/01 08:42:03;;;;;;;38.33;20.83;;;;;;;-142.25;100.00;58004.16;5034580;28;20037;-69
2023/01/01 08:44:29;;;;;;;37.27;19.43;;;;;;;-142.25;100.00;58004.16;5031807;28;20113;-69
2023/01/01 08:46:55;;;;;;;36.00;19.87;;;;;;;-142.25;100.00;58004.16;5015644;28;20479;-70
2023/01/01 08:49:20;;;;;;;34.90;19.87;;;;;;;-142.25;100.00;58004.16;5035393;28;20067;-71
2023/01/01 08:51:46;;;;;;;34.37;19.23;;;;;;;-142.25;100.00;58004.16;5037261;28;20383;-69
2023/01/01 08:54:11;;;;;;;35.77;20.10;;;;;;;-142.25;100.00;58004.16;5040600;28;20041;-69
2023/01/01 08:56:37;;;;;;;35.23;21.27;;;;;;;-142.25;100.00;58004.16;5038768;28;20094;-67
2023/01/01 08:59:03;;;;;;;28.97;18.77;;;;;;;-142.25;100.00;58004.16;5034703;28;20099;-70
2023/01/01 09:01:28;;;;;;;34.70;20.17;;;;;;;-142.25;100.00;58004.16;5034556;28;20119;-65
2023/01/01 09:03:54;;;;;;;35.07;20.47;;;;;;;-142.25;100.00;58004.16;5026062;28;20052;-70
2023/01/01 09:06:20;;;;;;;38.30;23.57;;;;;;;-142.25;100.00;58004.16;5033438;28;20103;-70
2023/01/01 09:08:46;;;;;;;40.13;23.73;;;;;;;-142.25;100.00;58004.16;5026277;28;20049;-71
2023/01/01 09:11:38;;;;;;;35.17;22.27;;;;;;;-142.25;100.00;58004.16;5031737;28;20494;-70
2023/01/01 09:14:04;;;;;;;36.53;21.37;;;;;;;-142.25;100.00;58004.16;5031054;28;20065;-70
2023/01/01 09:16:31;;;;;;;33.13;22.40;;;;;;;-142.25;100.00;58004.16;5030607;28;20057;-70
2023/01/01 09:18:56;;;;;;;42.23;23.03;;;;;;;-142.25;100.00;58004.16;5026572;28;20049;-69
2023/01/01 09:21:22;;;;;;;39.87;22.30;;;;;;;-142.25;100.00;58004.16;5028431;28;20585;-69
2023/01/01 09:23:48;;;;;;;38.60;21.97;;;;;;;-142.25;100.00;58004.16;5029758;28;20110;-68
2023/01/01 09:26:13;;;;;;;42.47;23.80;;;;;;;-142.25;100.00;58004.16;5030456;28;20138;-70
2023/01/01 09:28:39;;;;;;;42.67;24.23;;;;;;;-142.25;100.00;58004.16;5030802;28;20123;-71
2023/01/01 09:31:05;;;;;;;38.87;24.07;;;;;;;-142.25;100.00;58004.16;5029957;28;20134;-70
2023/01/01 09:33:32;;;;;;;37.78;22.08;;;;;;;-142.25;100.00;58004.16;5031506;28;20064;-69
2023/01/01 09:36:19;;;;;;;35.72;21.67;;;;;;;-142.25;100.00;58004.16;5034471;28;20049;-70
2023/01/01 09:38:53;;;;;;;31.88;20.10;;;;;;;-142.25;100.00;58004.16;5030118;28;20447;-69
2023/01/01 09:41:34;;;;;;;32.83;22.05;;;;;;;-142.25;100.00;58004.16;5028025;28;20045;-69
2023/01/01 09:44:19;;;;;;;37.53;22.35;;;;;;;-142.25;100.00;58004.16;5032182;28;20073;-70
2023/01/01 09:46:45;;;;;;;32.03;21.08;;;;;;;-142.25;100.00;58004.16;5034607;28;20045;-70
2023/01/01 09:49:17;;;;;;;36.55;21.42;;;;;;;-142.25;100.00;58004.16;5037318;28;20045;-72
2023/01/01 09:51:50;;;;;;;31.35;19.90;;;;;;;-142.25;100.00;58004.16;5034382;28;20124;-69
2023/01/01 09:54:29;;;;;;;30.38;20.17;;;;;;;-142.25;100.00;58004.16;5031811;28;20041;-70
2023/01/01 09:56:58;;;;;;;34.58;21.92;;;;;;;-142.25;100.00;58004.16;5037653;28;20033;-69
2023/01/01 09:59:25;;;;;;;30.02;20.90;;;;;;;-142.25;100.00;58004.16;5036667;28;20098;-69
2023/01/01 10:02:16;;;;;;;36.13;20.00;;;;;;;-142.25;100.00;58004.16;5037757;28;20437;-69
2023/01/01 10:04:58;;;;;;;30.02;18.90;;;;;;;-142.25;100.00;58004.16;4998324;28;20053;-69
2023/01/01 10:07:31;;;;;;;29.15;19.55;;;;;;;-142.25;100.00;58004.16;5037154;28;20068;-69
2023/01/01 10:10:23;;;;;;;30.67;20.13;;;;;;;-142.25;100.00;58004.16;5033125;28;20045;-69
2023/01/01 10:13:01;;;;;;;30.10;18.35;;;;;;;-142.25;100.00;58004.16;5027511;28;20527;-69
2023/01/01 10:15:36;;;;;;;27.75;19.55;;;;;;;-142.25;100.00;58004.16;5034568;28;20048;-70
2023/01/01 10:18:15;;;;;;;29.67;18.98;;;;;;;-142.25;100.00;58004.16;5033721;28;20056;-71
2023/01/01 10:20:47;;;;;;;33.47;18.75;;;;;;;-142.25;100.00;58004.16;5035062;28;20041;-70
2023/01/01 10:23:25;;;;;;;29.05;18.75;;;;;;;-142.25;100.00;58004.16;5034867;28;20415;-69
2023/01/01 10:25:53;;;;;;;26.73;17.55;;;;;;;-142.25;100.00;58004.16;5034850;28;20478;-71
2023/01/01 10:28:25;;;;;;;28.40;19.88;;;;;;;-142.25;100.00;58004.16;5036831;28;20075;-70
2023/01/01 10:31:09;;;;;;;25.15;16.77;;;;;;;-142.25;100.00;58004.16;5043537;28;20094;-69
2023/01/01 10:33:35;;;;;;;27.88;18.85;;;;;;;-142.25;100.00;58004.16;5035748;28;20040;-70
2023/01/01 10:36:01;;;;;;;32.40;18.80;;;;;;;-142.25;100.00;58004.16;5031669;28;20052;-70
2023/01/01 10:38:26;;;;;;;26.30;17.80;;;;;;;-142.25;100.00;58004.16;5029840;28;20033;-70
2023/01/01 10:41:02;;;;;;;26.23;18.25;;;;;;;-142.25;100.00;58004.16;5035526;28;20041;-71
2023/01/01 10:43:28;;;;;;;28.33;18.70;;;;;;;-142.25;100.00;58004.16;5038294;28;20166;-69
2023/01/01 10:45:55;;;;;;;27.63;18.67;;;;;;;-142.25;100.00;58004.16;5037699;28;20041;-69
2023/01/01 10:48:25;;;;;;;28.45;19.23;;;;;;;-142.25;100.00;58004.16;5038520;28;20074;-70
2023/01/01 10:50:54;;;;;;;28.98;18.75;;;;;;;-142.25;100.00;58004.16;5038585;28;20052;-70
2023/01/01 10:53:25;;;;;;;27.92;17.23;;;;;;;-142.25;100.00;58004.16;5035960;28;20037;-69
2023/01/01 10:55:59;;;;;;;29.75;18.33;;;;;;;-142.25;100.00;58004.16;5036039;28;20049;-70
2023/01/01 10:58:38;;;;;;;24.10;16.63;;;;;;;-142.25;100.00;58004.16;5034873;28;20519;-70
2023/01/01 11:01:06;;;;;;;30.52;18.38;;;;;;;-142.25;100.00;58004.16;5037457;28;20106;-70
2023/01/01 11:03:32;;;;;;;28.90;18.17;;;;;;;-142.25;100.00;58004.16;5035963;28;20348;-71
2023/01/01 11:06:04;;;;;;;30.40;20.52;;;;;;;-142.25;100.00;58004.16;5036081;28;20052;-70
2023/01/01 11:08:32;;;;;;;31.05;20.92;;;;;;;-142.25;100.00;58004.16;5034871;28;20528;-72